sensor_id;sensor_type;location;lat;lon;timestamp;pressure;altitude;pressure_sealevel;temperature;humidity
74881;BME280;63427;49.654;6.596;2022-10-15T00:01:37;98866.01;;;18.54;46.36
74881;BME280;63427;49.654;6.596;2022-10-15T00:04:03;98863.64;;;18.53;46.42
74881;BME280;63427;49.654;6.596;2022-10-15T00:06:28;98860.16;;;18.64;46.17
74881;BME280;63427;49.654;6.596;2022-10-15T00:08:53;98864.86;;;18.77;45.76
74881;BME280;63427;49.654;6.596;2022-10-15T00:11:24;98874.45;;;18.74;45.74
74881;BME280;63427;49.654;6.596;2022-10-15T00:13:44;98881.30;;;18.72;45.80
74881;BME280;63427;49.654;6.596;2022-10-15T00:16:11;98879.86;;;18.68;45.90
74881;BME280;63427;49.654;6.596;2022-10-15T00:18:34;98886.19;;;18.71;45.73
74881;BME280;63427;49.654;6.596;2022-10-15T00:20:59;98893.42;;;18.79;45.78
74881;BME280;63427;49.654;6.596;2022-10-15T00:23:24;98896.57;;;18.76;46.01
74881;BME280;63427;49.654;6.596;2022-10-15T00:28:15;98904.49;;;18.57;46.31
74881;BME280;63427;49.654;6.596;2022-10-15T00:30:40;98896.46;;;18.43;46.02
74881;BME280;63427;49.654;6.596;2022-10-15T00:33:05;98894.72;;;18.71;46.01
74881;BME280;63427;49.654;6.596;2022-10-15T00:35:31;98897.10;;;18.41;46.20
74881;BME280;63427;49.654;6.596;2022-10-15T00:37:56;98901.38;;;18.46;46.22
74881;BME280;63427;49.654;6.596;2022-10-15T00:40:21;98910.47;;;18.68;46.37
74881;BME280;63427;49.654;6.596;2022-10-15T00:42:47;98903.10;;;18.64;46.63
74881;BME280;63427;49.654;6.596;2022-10-15T00:45:13;98896.19;;;18.43;47.04
74881;BME280;63427;49.654;6.596;2022-10-15T00:47:38;98895.21;;;18.62;46.56
74881;BME280;63427;49.654;6.596;2022-10-15T00:50:06;98892.72;;;18.59;46.45
74881;BME280;63427;49.654;6.596;2022-10-15T00:52:33;98888.88;;;18.32;46.76
74881;BME280;63427;49.654;6.596;2022-10-15T00:54:58;98890.76;;;18.36;47.10
74881;BME280;63427;49.654;6.596;2022-10-15T00:57:18;98888.77;;;18.18;48.10
74881;BME280;63427;49.654;6.596;2022-10-15T00:59:48;98893.29;;;18.38;47.68
74881;BME280;63427;49.654;6.596;2022-10-15T01:02:09;98902.45;;;18.32;47.40
74881;BME280;63427;49.654;6.596;2022-10-15T01:04:34;98904.44;;;18.37;47.52
74881;BME280;63427;49.654;6.596;2022-10-15T01:06:59;98906.65;;;18.07;48.38
74881;BME280;63427;49.654;6.596;2022-10-15T01:09:24;98892.80;;;18.41;47.70
74881;BME280;63427;49.654;6.596;2022-10-15T01:11:51;98891.38;;;18.28;48.01
74881;BME280;63427;49.654;6.596;2022-10-15T01:14:26;98896.53;;;18.29;47.85
74881;BME280;63427;49.654;6.596;2022-10-15T01:16:45;98899.56;;;18.30;47.93
74881;BME280;63427;49.654;6.596;2022-10-15T01:19:14;98903.09;;;18.36;47.82
74881;BME280;63427;49.654;6.596;2022-10-15T01:21:34;98904.90;;;18.60;47.93
74881;BME280;63427;49.654;6.596;2022-10-15T01:24:18;98902.47;;;18.56;48.02
74881;BME280;63427;49.654;6.596;2022-10-15T01:26:37;98901.11;;;18.23;48.04
74881;BME280;63427;49.654;6.596;2022-10-15T01:28:51;98903.57;;;18.45;48.29
74881;BME280;63427;49.654;6.596;2022-10-15T01:31:18;98906.99;;;18.08;48.26
74881;BME280;63427;49.654;6.596;2022-10-15T01:33:43;98907.66;;;18.24;48.77
74881;BME280;63427;49.654;6.596;2022-10-15T01:36:10;98903.60;;;18.32;48.48
74881;BME280;63427;49.654;6.596;2022-10-15T01:38:37;98908.71;;;18.32;48.53
74881;BME280;63427;49.654;6.596;2022-10-15T01:40:56;98903.40;;;18.04;48.45
74881;BME280;63427;49.654;6.596;2022-10-15T01:43:23;98895.26;;;18.27;47.81
74881;BME280;63427;49.654;6.596;2022-10-15T01:45:48;98899.49;;;18.16;48.01
74881;BME280;63427;49.654;6.596;2022-10-15T01:48:11;98899.63;;;18.20;48.06
74881;BME280;63427;49.654;6.596;2022-10-15T01:50:37;98899.38;;;18.22;48.15
74881;BME280;63427;49.654;6.596;2022-10-15T01:53:01;98907.91;;;18.51;48.13
74881;BME280;63427;49.654;6.596;2022-10-15T01:55:25;98908.24;;;18.34;47.95
74881;BME280;63427;49.654;6.596;2022-10-15T01:57:51;98904.91;;;18.37;47.88
74881;BME280;63427;49.654;6.596;2022-10-15T02:00:16;98905.73;;;18.20;48.18
74881;BME280;63427;49.654;6.596;2022-10-15T02:02:41;98907.32;;;18.34;47.97
74881;BME280;63427;49.654;6.596;2022-10-15T02:05:11;98908.32;;;17.95;48.70
74881;BME280;63427;49.654;6.596;2022-10-15T02:07:39;98914.89;;;18.43;47.60
74881;BME280;63427;49.654;6.596;2022-10-15T02:10:07;98921.64;;;18.12;48.08
74881;BME280;63427;49.654;6.596;2022-10-15T02:12:31;98925.80;;;18.20;47.73
74881;BME280;63427;49.654;6.596;2022-10-15T02:14:53;98926.82;;;18.12;47.93
74881;BME280;63427;49.654;6.596;2022-10-15T02:17:14;98926.37;;;18.32;48.26
74881;BME280;63427;49.654;6.596;2022-10-15T02:19:42;98924.51;;;18.24;47.75
74881;BME280;63427;49.654;6.596;2022-10-15T02:22:06;98922.20;;;18.37;48.01
74881;BME280;63427;49.654;6.596;2022-10-15T02:24:33;98926.20;;;18.49;48.17
74881;BME280;63427;49.654;6.596;2022-10-15T02:26:55;98921.37;;;18.33;47.84
74881;BME280;63427;49.654;6.596;2022-10-15T02:29:21;98923.52;;;18.49;47.70
74881;BME280;63427;49.654;6.596;2022-10-15T02:31:46;98918.94;;;18.30;47.47
74881;BME280;63427;49.654;6.596;2022-10-15T02:34:12;98927.30;;;18.15;47.93
74881;BME280;63427;49.654;6.596;2022-10-15T02:36:36;98917.74;;;18.30;47.53
74881;BME280;63427;49.654;6.596;2022-10-15T02:39:01;98913.68;;;18.44;47.45
74881;BME280;63427;49.654;6.596;2022-10-15T02:41:27;98914.55;;;18.55;47.26
74881;BME280;63427;49.654;6.596;2022-10-15T02:43:50;98910.97;;;18.64;46.94
74881;BME280;63427;49.654;6.596;2022-10-15T02:46:17;98910.40;;;18.71;46.73
74881;BME280;63427;49.654;6.596;2022-10-15T02:48:41;98915.83;;;18.75;46.59
74881;BME280;63427;49.654;6.596;2022-10-15T02:51:06;98913.39;;;18.82;46.33
74881;BME280;63427;49.654;6.596;2022-10-15T02:53:31;98912.09;;;18.51;46.49
74881;BME280;63427;49.654;6.596;2022-10-15T02:55:56;98911.16;;;18.58;46.26
74881;BME280;63427;49.654;6.596;2022-10-15T02:58:21;98916.32;;;18.24;47.23
74881;BME280;63427;49.654;6.596;2022-10-15T03:00:48;98919.48;;;18.32;46.93
74881;BME280;63427;49.654;6.596;2022-10-15T03:03:12;98924.66;;;18.26;47.01
74881;BME280;63427;49.654;6.596;2022-10-15T03:05:37;98929.82;;;18.12;47.52
74881;BME280;63427;49.654;6.596;2022-10-15T03:08:03;98935.20;;;18.05;47.82
74881;BME280;63427;49.654;6.596;2022-10-15T03:10:28;98938.32;;;18.14;47.15
74881;BME280;63427;49.654;6.596;2022-10-15T03:12:53;98943.54;;;17.95;47.36
74881;BME280;63427;49.654;6.596;2022-10-15T03:15:18;98946.78;;;17.95;47.39
74881;BME280;63427;49.654;6.596;2022-10-15T03:17:44;98947.97;;;18.26;47.62
74881;BME280;63427;49.654;6.596;2022-10-15T03:20:09;98951.94;;;17.92;47.75
74881;BME280;63427;49.654;6.596;2022-10-15T03:22:34;98948.29;;;18.08;47.96
74881;BME280;63427;49.654;6.596;2022-10-15T03:24:59;98946.62;;;17.84;48.19
74881;BME280;63427;49.654;6.596;2022-10-15T03:27:25;98943.69;;;18.08;47.87
74881;BME280;63427;49.654;6.596;2022-10-15T03:29:50;98940.92;;;17.99;47.31
74881;BME280;63427;49.654;6.596;2022-10-15T03:32:15;98939.92;;;18.23;47.12
74881;BME280;63427;49.654;6.596;2022-10-15T03:34:40;98939.34;;;18.26;47.17
74881;BME280;63427;49.654;6.596;2022-10-15T03:37:06;98939.63;;;18.12;47.08
74881;BME280;63427;49.654;6.596;2022-10-15T03:39:31;98935.49;;;18.47;46.49
74881;BME280;63427;49.654;6.596;2022-10-15T03:41:56;98933.45;;;18.17;46.79
74881;BME280;63427;49.654;6.596;2022-10-15T03:44:21;98934.00;;;18.23;46.60
74881;BME280;63427;49.654;6.596;2022-10-15T03:46:47;98933.50;;;18.18;46.68
74881;BME280;63427;49.654;6.596;2022-10-15T03:49:12;98928.87;;;18.19;46.67
74881;BME280;63427;49.654;6.596;2022-10-15T03:51:37;98928.66;;;17.84;46.52
74881;BME280;63427;49.654;6.596;2022-10-15T03:54:03;98930.42;;;18.28;46.23
74881;BME280;63427;49.654;6.596;2022-10-15T03:56:28;98932.42;;;18.34;46.53
74881;BME280;63427;49.654;6.596;2022-10-15T03:58:53;98931.72;;;18.32;46.46
74881;BME280;63427;49.654;6.596;2022-10-15T04:01:24;98929.25;;;18.21;46.31
74881;BME280;63427;49.654;6.596;2022-10-15T04:03:44;98932.73;;;18.25;46.30
74881;BME280;63427;49.654;6.596;2022-10-15T04:06:09;98928.63;;;18.47;46.20
74881;BME280;63427;49.654;6.596;2022-10-15T04:08:34;98925.91;;;18.43;46.40
74881;BME280;63427;49.654;6.596;2022-10-15T04:10:59;98926.70;;;18.46;46.42
74881;BME280;63427;49.654;6.596;2022-10-15T04:13:25;98935.13;;;18.24;46.59
74881;BME280;63427;49.654;6.596;2022-10-15T04:15:50;98941.22;;;18.37;46.38
74881;BME280;63427;49.654;6.596;2022-10-15T04:18:15;98951.36;;;18.52;46.58
74881;BME280;63427;49.654;6.596;2022-10-15T04:20:41;98953.08;;;18.31;46.27
74881;BME280;63427;49.654;6.596;2022-10-15T04:23:06;98953.32;;;18.30;46.69
74881;BME280;63427;49.654;6.596;2022-10-15T04:25:31;98954.56;;;18.61;46.54
74881;BME280;63427;49.654;6.596;2022-10-15T04:27:56;98957.10;;;18.29;46.80
74881;BME280;63427;49.654;6.596;2022-10-15T04:30:21;98962.11;;;18.43;46.91
74881;BME280;63427;49.654;6.596;2022-10-15T04:32:46;98968.46;;;18.09;47.21
74881;BME280;63427;49.654;6.596;2022-10-15T04:35:12;98978.60;;;17.60;48.19
74881;BME280;63427;49.654;6.596;2022-10-15T04:37:37;98977.64;;;17.69;47.96
74881;BME280;63427;49.654;6.596;2022-10-15T04:40:04;98978.75;;;17.67;47.78
74881;BME280;63427;49.654;6.596;2022-10-15T04:42:28;98979.77;;;17.87;48.00
74881;BME280;63427;49.654;6.596;2022-10-15T04:44:53;98976.52;;;18.04;47.36
74881;BME280;63427;49.654;6.596;2022-10-15T04:47:18;98976.42;;;18.23;47.69
74881;BME280;63427;49.654;6.596;2022-10-15T04:49:43;98979.24;;;18.00;47.56
74881;BME280;63427;49.654;6.596;2022-10-15T04:52:09;98979.24;;;17.76;48.17
74881;BME280;63427;49.654;6.596;2022-10-15T04:54:34;98975.91;;;17.76;47.75
74881;BME280;63427;49.654;6.596;2022-10-15T04:56:59;98972.62;;;18.03;47.73
74881;BME280;63427;49.654;6.596;2022-10-15T04:59:24;98976.73;;;17.64;48.00
74881;BME280;63427;49.654;6.596;2022-10-15T05:01:50;98975.92;;;17.75;47.68
74881;BME280;63427;49.654;6.596;2022-10-15T05:04:15;98979.20;;;17.83;48.01
74881;BME280;63427;49.654;6.596;2022-10-15T05:06:40;98978.42;;;18.02;48.07
74881;BME280;63427;49.654;6.596;2022-10-15T05:09:05;98973.43;;;17.91;47.73
74881;BME280;63427;49.654;6.596;2022-10-15T05:11:33;98971.69;;;17.70;47.90
74881;BME280;63427;49.654;6.596;2022-10-15T05:13:57;98969.68;;;18.28;47.40
74881;BME280;63427;49.654;6.596;2022-10-15T05:16:23;98974.55;;;17.76;48.18
74881;BME280;63427;49.654;6.596;2022-10-15T05:18:49;98976.43;;;17.73;47.86
74881;BME280;63427;49.654;6.596;2022-10-15T05:21:12;98981.53;;;17.99;47.74
74881;BME280;63427;49.654;6.596;2022-10-15T05:23:37;98985.21;;;17.63;48.50
74881;BME280;63427;49.654;6.596;2022-10-15T05:26:04;98986.29;;;17.80;48.02
74881;BME280;63427;49.654;6.596;2022-10-15T05:28:28;98985.98;;;18.05;47.66
74881;BME280;63427;49.654;6.596;2022-10-15T05:30:53;98987.06;;;18.06;47.37
74881;BME280;63427;49.654;6.596;2022-10-15T05:33:18;98992.30;;;17.98;47.55
74881;BME280;63427;49.654;6.596;2022-10-15T05:35:43;98997.18;;;18.02;47.31
74881;BME280;63427;49.654;6.596;2022-10-15T05:38:09;98995.92;;;17.79;47.79
74881;BME280;63427;49.654;6.596;2022-10-15T05:40:34;98996.69;;;17.88;47.27
74881;BME280;63427;49.654;6.596;2022-10-15T05:42:59;98991.16;;;17.98;47.26
74881;BME280;63427;49.654;6.596;2022-10-15T05:45:25;98992.59;;;17.64;47.54
74881;BME280;63427;49.654;6.596;2022-10-15T05:47:53;98988.28;;;17.24;48.60
74881;BME280;63427;49.654;6.596;2022-10-15T05:50:15;98985.38;;;17.50;48.17
74881;BME280;63427;49.654;6.596;2022-10-15T05:52:40;98988.87;;;17.68;47.78
74881;BME280;63427;49.654;6.596;2022-10-15T05:55:06;98988.04;;;17.56;47.29
74881;BME280;63427;49.654;6.596;2022-10-15T05:57:31;98979.20;;;17.12;48.06
74881;BME280;63427;49.654;6.596;2022-10-15T05:59:56;98982.48;;;17.66;47.42
74881;BME280;63427;49.654;6.596;2022-10-15T06:02:21;98980.65;;;17.58;47.17
74881;BME280;63427;49.654;6.596;2022-10-15T06:04:47;98979.76;;;17.70;47.03
74881;BME280;63427;49.654;6.596;2022-10-15T06:07:12;98982.05;;;18.02;46.79
74881;BME280;63427;49.654;6.596;2022-10-15T06:09:37;98981.98;;;17.31;47.94
74881;BME280;63427;49.654;6.596;2022-10-15T06:12:03;98980.18;;;17.49;46.93
74881;BME280;63427;49.654;6.596;2022-10-15T06:14:28;98983.46;;;18.13;46.51
74881;BME280;63427;49.654;6.596;2022-10-15T06:16:53;98988.33;;;17.84;46.43
74881;BME280;63427;49.654;6.596;2022-10-15T06:19:18;98986.53;;;17.80;46.56
74881;BME280;63427;49.654;6.596;2022-10-15T06:21:44;98979.70;;;17.82;46.48
74881;BME280;63427;49.654;6.596;2022-10-15T06:24:09;98983.37;;;17.89;46.41
74881;BME280;63427;49.654;6.596;2022-10-15T06:26:34;98977.30;;;17.49;46.54
74881;BME280;63427;49.654;6.596;2022-10-15T06:28:59;98975.22;;;17.99;46.12
74881;BME280;63427;49.654;6.596;2022-10-15T06:31:25;98983.96;;;18.08;46.53
74881;BME280;63427;49.654;6.596;2022-10-15T06:33:50;98987.21;;;17.89;46.45
74881;BME280;63427;49.654;6.596;2022-10-15T06:36:15;98990.14;;;17.81;46.23
74881;BME280;63427;49.654;6.596;2022-10-15T06:38:41;98990.87;;;18.08;46.34
74881;BME280;63427;49.654;6.596;2022-10-15T06:41:06;98994.99;;;17.91;45.98
74881;BME280;63427;49.654;6.596;2022-10-15T06:43:31;99002.84;;;17.92;46.01
74881;BME280;63427;49.654;6.596;2022-10-15T06:45:58;99006.59;;;18.01;45.75
74881;BME280;63427;49.654;6.596;2022-10-15T06:48:22;99008.16;;;18.09;45.98
74881;BME280;63427;49.654;6.596;2022-10-15T06:50:47;99009.64;;;18.00;46.17
74881;BME280;63427;49.654;6.596;2022-10-15T06:53:12;99013.56;;;17.94;46.06
74881;BME280;63427;49.654;6.596;2022-10-15T06:55:37;99016.32;;;17.98;45.97
74881;BME280;63427;49.654;6.596;2022-10-15T06:58:03;99011.15;;;18.12;45.73
74881;BME280;63427;49.654;6.596;2022-10-15T07:00:28;99015.83;;;17.97;46.10
74881;BME280;63427;49.654;6.596;2022-10-15T07:02:53;99016.69;;;17.79;46.59
74881;BME280;63427;49.654;6.596;2022-10-15T07:05:19;99015.89;;;17.74;46.89
74881;BME280;63427;49.654;6.596;2022-10-15T07:07:50;99015.81;;;17.93;46.65
74881;BME280;63427;49.654;6.596;2022-10-15T07:10:09;99011.59;;;17.96;46.70
74881;BME280;63427;49.654;6.596;2022-10-15T07:12:34;99010.97;;;17.75;46.71
74881;BME280;63427;49.654;6.596;2022-10-15T07:15:00;99007.05;;;18.05;46.77
74881;BME280;63427;49.654;6.596;2022-10-15T07:17:25;99009.64;;;17.73;47.00
74881;BME280;63427;49.654;6.596;2022-10-15T07:19:50;99010.59;;;18.19;46.76
74881;BME280;63427;49.654;6.596;2022-10-15T07:22:16;99007.43;;;17.96;46.65
74881;BME280;63427;49.654;6.596;2022-10-15T07:24:41;99007.82;;;18.17;46.67
74881;BME280;63427;49.654;6.596;2022-10-15T07:27:06;99008.87;;;18.40;46.53
74881;BME280;63427;49.654;6.596;2022-10-15T07:29:31;99007.34;;;18.35;46.37
74881;BME280;63427;49.654;6.596;2022-10-15T07:31:57;99005.06;;;18.34;46.48
74881;BME280;63427;49.654;6.596;2022-10-15T07:34:22;99006.28;;;18.38;46.57
74881;BME280;63427;49.654;6.596;2022-10-15T07:36:47;99009.36;;;18.60;46.18
74881;BME280;63427;49.654;6.596;2022-10-15T07:39:13;99013.95;;;18.61;46.10
74881;BME280;63427;49.654;6.596;2022-10-15T07:41:38;99016.40;;;18.62;45.97
74881;BME280;63427;49.654;6.596;2022-10-15T07:44:03;99020.77;;;18.80;45.89
74881;BME280;63427;49.654;6.596;2022-10-15T07:46:28;99020.51;;;18.39;45.54
74881;BME280;63427;49.654;6.596;2022-10-15T07:48:53;99015.90;;;18.81;45.98
74881;BME280;63427;49.654;6.596;2022-10-15T07:51:19;99019.06;;;18.73;45.77
74881;BME280;63427;49.654;6.596;2022-10-15T07:53:44;99023.65;;;19.03;45.91
74881;BME280;63427;49.654;6.596;2022-10-15T07:56:10;99023.73;;;18.48;45.81
74881;BME280;63427;49.654;6.596;2022-10-15T07:58:35;99023.85;;;18.78;45.62
74881;BME280;63427;49.654;6.596;2022-10-15T08:01:00;99022.63;;;18.39;45.52
74881;BME280;63427;49.654;6.596;2022-10-15T08:03:25;99019.14;;;18.55;45.80
74881;BME280;63427;49.654;6.596;2022-10-15T08:05:50;99022.38;;;19.09;45.68
74881;BME280;63427;49.654;6.596;2022-10-15T08:08:15;99019.46;;;18.67;45.83
74881;BME280;63427;49.654;6.596;2022-10-15T08:10:41;99018.17;;;18.92;45.34
74881;BME280;63427;49.654;6.596;2022-10-15T08:13:06;99019.67;;;18.94;45.74
74881;BME280;63427;49.654;6.596;2022-10-15T08:15:31;99021.00;;;18.97;45.81
74881;BME280;63427;49.654;6.596;2022-10-15T08:17:58;99015.34;;;19.40;45.77
74881;BME280;63427;49.654;6.596;2022-10-15T08:20:21;99013.77;;;18.68;46.64
74881;BME280;63427;49.654;6.596;2022-10-15T08:22:47;99015.38;;;18.95;46.66
74881;BME280;63427;49.654;6.596;2022-10-15T08:25:12;99013.09;;;18.89;46.57
74881;BME280;63427;49.654;6.596;2022-10-15T08:27:37;99005.56;;;18.81;45.97
74881;BME280;63427;49.654;6.596;2022-10-15T08:30:03;99001.50;;;19.31;46.08
74881;BME280;63427;49.654;6.596;2022-10-15T08:32:27;99003.87;;;19.19;47.08
74881;BME280;63427;49.654;6.596;2022-10-15T08:34:53;99006.58;;;18.31;48.43
74881;BME280;63427;49.654;6.596;2022-10-15T08:37:18;99007.56;;;18.69;47.51
74881;BME280;63427;49.654;6.596;2022-10-15T08:39:43;99001.01;;;18.88;46.84
74881;BME280;63427;49.654;6.596;2022-10-15T08:42:17;98997.62;;;18.73;47.26
74881;BME280;63427;49.654;6.596;2022-10-15T08:44:39;98999.45;;;19.30;46.78
74881;BME280;63427;49.654;6.596;2022-10-15T08:47:03;99001.33;;;19.58;45.64
74881;BME280;63427;49.654;6.596;2022-10-15T08:49:33;99000.50;;;19.49;45.81
74881;BME280;63427;49.654;6.596;2022-10-15T08:51:53;99000.43;;;19.55;45.30
74881;BME280;63427;49.654;6.596;2022-10-15T08:54:15;98996.64;;;19.59;45.37
74881;BME280;63427;49.654;6.596;2022-10-15T08:56:43;99001.77;;;19.24;45.73
74881;BME280;63427;49.654;6.596;2022-10-15T08:59:12;99001.71;;;19.23;45.60
74881;BME280;63427;49.654;6.596;2022-10-15T09:01:34;99004.92;;;19.27;45.51
74881;BME280;63427;49.654;6.596;2022-10-15T09:04:04;98999.38;;;19.05;46.57
74881;BME280;63427;49.654;6.596;2022-10-15T09:06:23;99001.32;;;19.03;46.45
74881;BME280;63427;49.654;6.596;2022-10-15T09:08:51;99001.41;;;19.13;45.92
74881;BME280;63427;49.654;6.596;2022-10-15T09:11:17;98994.80;;;18.73;46.53
74881;BME280;63427;49.654;6.596;2022-10-15T09:13:39;98991.90;;;19.44;45.84
74881;BME280;63427;49.654;6.596;2022-10-15T09:16:04;98987.75;;;19.46;45.31
74881;BME280;63427;49.654;6.596;2022-10-15T09:18:29;98982.20;;;19.66;44.96
74881;BME280;63427;49.654;6.596;2022-10-15T09:20:52;98989.57;;;19.76;45.25
74881;BME280;63427;49.654;6.596;2022-10-15T09:23:19;98988.26;;;19.87;45.41
74881;BME280;63427;49.654;6.596;2022-10-15T09:25:44;98987.32;;;19.93;45.62
74881;BME280;63427;49.654;6.596;2022-10-15T09:28:09;98981.25;;;19.74;45.57
74881;BME280;63427;49.654;6.596;2022-10-15T09:30:35;98985.21;;;19.68;44.74
74881;BME280;63427;49.654;6.596;2022-10-15T09:33:04;98982.97;;;20.04;45.37
74881;BME280;63427;49.654;6.596;2022-10-15T09:35:25;98992.16;;;19.76;45.66
74881;BME280;63427;49.654;6.596;2022-10-15T09:37:53;98991.05;;;19.62;45.94
74881;BME280;63427;49.654;6.596;2022-10-15T09:40:25;98985.80;;;19.76;45.40
74881;BME280;63427;49.654;6.596;2022-10-15T09:42:40;98990.37;;;18.84;47.26
74881;BME280;63427;49.654;6.596;2022-10-15T09:45:08;98988.89;;;19.54;46.24
74881;BME280;63427;49.654;6.596;2022-10-15T09:47:30;98989.64;;;18.81;47.80
74881;BME280;63427;49.654;6.596;2022-10-15T09:49:54;98991.11;;;19.45;46.34
74881;BME280;63427;49.654;6.596;2022-10-15T09:52:29;98994.04;;;19.57;46.50
74881;BME280;63427;49.654;6.596;2022-10-15T09:54:50;98994.83;;;19.91;46.19
74881;BME280;63427;49.654;6.596;2022-10-15T09:57:11;98992.98;;;19.42;46.93
74881;BME280;63427;49.654;6.596;2022-10-15T09:59:34;98990.61;;;19.72;45.81
74881;BME280;63427;49.654;6.596;2022-10-15T10:02:02;98993.47;;;19.63;45.49
74881;BME280;63427;49.654;6.596;2022-10-15T10:04:27;98990.64;;;19.94;45.20
74881;BME280;63427;49.654;6.596;2022-10-15T10:06:52;98996.44;;;19.78;44.82
74881;BME280;63427;49.654;6.596;2022-10-15T10:09:18;99005.14;;;19.06;46.31
74881;BME280;63427;49.654;6.596;2022-10-15T10:11:47;99004.84;;;17.71;50.19
74881;BME280;63427;49.654;6.596;2022-10-15T10:14:05;98997.85;;;19.39;47.27
74881;BME280;63427;49.654;6.596;2022-10-15T10:16:30;99009.39;;;19.00;47.37
74881;BME280;63427;49.654;6.596;2022-10-15T10:19:04;99008.76;;;18.85;47.79
74881;BME280;63427;49.654;6.596;2022-10-15T10:21:22;99002.90;;;19.11;47.00
74881;BME280;63427;49.654;6.596;2022-10-15T10:23:46;99007.47;;;19.44;46.82
74881;BME280;63427;49.654;6.596;2022-10-15T10:26:11;99008.93;;;19.83;46.23
74881;BME280;63427;49.654;6.596;2022-10-15T10:28:42;99000.61;;;20.14;45.25
74881;BME280;63427;49.654;6.596;2022-10-15T10:31:04;99008.94;;;19.44;45.82
74881;BME280;63427;49.654;6.596;2022-10-15T10:33:28;99009.64;;;20.27;44.95
74881;BME280;63427;49.654;6.596;2022-10-15T10:35:52;99005.26;;;19.82;45.29
74881;BME280;63427;49.654;6.596;2022-10-15T10:38:21;99005.56;;;18.76;47.97
74881;BME280;63427;49.654;6.596;2022-10-15T10:40:51;99007.23;;;18.47;49.63
74881;BME280;63427;49.654;6.596;2022-10-15T10:43:11;99010.62;;;18.56;48.16
74881;BME280;63427;49.654;6.596;2022-10-15T10:45:32;99005.88;;;19.12;48.60
74881;BME280;63427;49.654;6.596;2022-10-15T10:47:57;99013.17;;;19.53;47.35
74881;BME280;63427;49.654;6.596;2022-10-15T10:50:30;99006.91;;;17.45;50.54
74881;BME280;63427;49.654;6.596;2022-10-15T10:52:48;99008.74;;;18.74;49.30
74881;BME280;63427;49.654;6.596;2022-10-15T10:55:18;99015.50;;;19.07;48.40
74881;BME280;63427;49.654;6.596;2022-10-15T10:57:43;99015.48;;;19.58;47.78
74881;BME280;63427;49.654;6.596;2022-10-15T11:00:05;99008.64;;;19.48;46.76
74881;BME280;63427;49.654;6.596;2022-10-15T11:02:28;99007.48;;;19.57;46.71
74881;BME280;63427;49.654;6.596;2022-10-15T11:04:53;99012.60;;;19.54;47.51
74881;BME280;63427;49.654;6.596;2022-10-15T11:07:22;99014.28;;;19.69;47.70
74881;BME280;63427;49.654;6.596;2022-10-15T11:09:49;99015.25;;;19.78;46.46
74881;BME280;63427;49.654;6.596;2022-10-15T11:12:23;99023.00;;;19.52;47.21
74881;BME280;63427;49.654;6.596;2022-10-15T11:14:43;99015.51;;;19.29;47.25
74881;BME280;63427;49.654;6.596;2022-10-15T11:17:04;99020.81;;;19.33;47.66
74881;BME280;63427;49.654;6.596;2022-10-15T11:19:31;99014.52;;;19.96;46.53
74881;BME280;63427;49.654;6.596;2022-10-15T11:22:00;99008.94;;;19.83;46.63
74881;BME280;63427;49.654;6.596;2022-10-15T11:24:20;99008.95;;;19.92;45.73
74881;BME280;63427;49.654;6.596;2022-10-15T11:29:10;98997.47;;;20.54;45.16
74881;BME280;63427;49.654;6.596;2022-10-15T11:31:35;98994.95;;;20.37;45.14
74881;BME280;63427;49.654;6.596;2022-10-15T11:34:07;98998.50;;;20.68;44.63
74881;BME280;63427;49.654;6.596;2022-10-15T11:36:34;98999.11;;;18.93;47.38
74881;BME280;63427;49.654;6.596;2022-10-15T11:38:50;98997.90;;;19.35;46.88
74881;BME280;63427;49.654;6.596;2022-10-15T11:41:22;98993.58;;;20.24;46.16
74881;BME280;63427;49.654;6.596;2022-10-15T11:43:49;98999.28;;;19.85;45.44
74881;BME280;63427;49.654;6.596;2022-10-15T11:46:06;99001.17;;;20.09;46.14
74881;BME280;63427;49.654;6.596;2022-10-15T11:48:37;98998.31;;;19.72;45.93
74881;BME280;63427;49.654;6.596;2022-10-15T11:50:56;99000.02;;;18.91;47.70
74881;BME280;63427;49.654;6.596;2022-10-15T11:53:30;99001.95;;;19.19;47.22
74881;BME280;63427;49.654;6.596;2022-10-15T11:55:45;99005.27;;;19.90;46.64
74881;BME280;63427;49.654;6.596;2022-10-15T11:58:12;98998.98;;;18.66;48.28
74881;BME280;63427;49.654;6.596;2022-10-15T12:00:34;98990.09;;;19.73;46.57
74881;BME280;63427;49.654;6.596;2022-10-15T12:03:03;98999.73;;;20.10;45.89
74881;BME280;63427;49.654;6.596;2022-10-15T12:05:25;99002.93;;;19.09;47.71
74881;BME280;63427;49.654;6.596;2022-10-15T12:07:48;99002.28;;;19.70;47.29
74881;BME280;63427;49.654;6.596;2022-10-15T12:10:24;99001.69;;;19.11;48.13
74881;BME280;63427;49.654;6.596;2022-10-15T12:12:43;99004.03;;;19.70;47.37
74881;BME280;63427;49.654;6.596;2022-10-15T12:15:20;98996.78;;;19.18;48.63
74881;BME280;63427;49.654;6.596;2022-10-15T12:17:35;98986.55;;;20.08;46.64
74881;BME280;63427;49.654;6.596;2022-10-15T12:19:58;98988.57;;;17.88;50.75
74881;BME280;63427;49.654;6.596;2022-10-15T12:24:51;98982.41;;;18.00;51.57
74881;BME280;63427;49.654;6.596;2022-10-15T12:27:15;98984.00;;;18.52;50.70
74881;BME280;63427;49.654;6.596;2022-10-15T12:29:34;98974.90;;;19.37;48.50
74881;BME280;63427;49.654;6.596;2022-10-15T12:31:59;98980.54;;;19.70;47.78
74881;BME280;63427;49.654;6.596;2022-10-15T12:34:30;98994.67;;;20.08;46.97
74881;BME280;63427;49.654;6.596;2022-10-15T12:36:59;98978.01;;;20.45;45.73
74881;BME280;63427;49.654;6.596;2022-10-15T12:39:21;98975.58;;;19.81;46.52
74881;BME280;63427;49.654;6.596;2022-10-15T12:41:42;98971.95;;;20.17;46.23
74881;BME280;63427;49.654;6.596;2022-10-15T12:44:13;98966.14;;;19.57;47.20
74881;BME280;63427;49.654;6.596;2022-10-15T12:46:35;98965.29;;;19.81;47.54
74881;BME280;63427;49.654;6.596;2022-10-15T12:48:55;98962.26;;;20.17;46.46
74881;BME280;63427;49.654;6.596;2022-10-15T12:51:28;98969.06;;;20.53;46.02
74881;BME280;63427;49.654;6.596;2022-10-15T12:53:46;98970.01;;;19.86;46.74
74881;BME280;63427;49.654;6.596;2022-10-15T12:56:19;98967.54;;;20.40;45.91